Time;durP1;ratioP1;P1;durP2;ratioP2;P2;SDS_P1;SDS_P2;PMS_P1;PMS_P2;Temp;Humidity;BMP_temperature;BMP_pressure;BME280_temperature;BME280_humidity;BME280_pressure;Samples;Min_cycle;Max_cycle;Signal;HPM_P1;HPM_P2
2023/04/26 00:02:18;;;;;;;0.50;0.50;;;3.10;99.90;;;;;;5052342;28;20195;-78
2023/04/26 00:04:46;;;;;;;0.50;0.40;;;3.10;99.90;;;;;;5051920;28;20666;-78
2023/04/26 00:07:14;;;;;;;0.50;0.40;;;3.10;99.90;;;;;;5051512;28;20225;-77
2023/04/26 00:09:43;;;;;;;0.50;0.50;;;3.00;99.90;;;;;;5051780;28;20628;-78
2023/04/26 00:12:10;;;;;;;0.50;0.45;;;3.00;99.90;;;;;;5052029;28;20565;-78
2023/04/26 00:14:38;;;;;;;0.50;0.40;;;2.90;99.90;;;;;;5052111;28;20555;-77
2023/04/26 00:17:05;;;;;;;0.50;0.50;;;2.90;99.90;;;;;;5051606;28;20202;-77
2023/04/26 00:19:31;;;;;;;0.50;0.40;;;2.90;99.90;;;;;;5051520;28;20214;-78
2023/04/26 00:21:58;;;;;;;0.50;0.40;;;2.90;99.90;;;;;;5051080;28;20198;-77
2023/04/26 00:24:25;;;;;;;1.33;1.23;;;2.80;99.90;;;;;;5051787;28;20191;-78
2023/04/26 00:26:55;;;;;;;0.50;0.40;;;2.80;99.90;;;;;;5051269;28;20219;-78
2023/04/26 00:29:22;;;;;;;0.50;0.40;;;2.90;99.90;;;;;;5050880;28;20218;-77
2023/04/26 00:31:49;;;;;;;0.50;0.50;;;2.90;99.90;;;;;;5051717;28;20207;-78
2023/04/26 00:34:15;;;;;;;0.50;0.40;;;2.90;99.90;;;;;;5051740;28;20226;-77
2023/04/26 00:36:42;;;;;;;0.50;0.40;;;2.80;99.90;;;;;;5051683;28;20558;-77
2023/04/26 00:39:09;;;;;;;0.50;0.50;;;2.80;99.90;;;;;;5051231;28;20305;-77
2023/04/26 00:41:36;;;;;;;0.60;0.60;;;2.80;99.90;;;;;;5051601;28;20625;-78
2023/04/26 00:44:05;;;;;;;0.50;0.50;;;2.80;99.90;;;;;;5050707;28;20328;-77
2023/04/26 00:46:32;;;;;;;0.50;0.40;;;2.80;99.90;;;;;;5051021;28;20207;-78
2023/04/26 00:48:59;;;;;;;0.50;0.45;;;2.80;99.90;;;;;;5051036;28;20199;-77
2023/04/26 00:51:27;;;;;;;0.50;0.50;;;2.80;99.90;;;;;;5034946;28;20202;-78
2023/04/26 00:53:54;;;;;;;0.50;0.50;;;2.80;99.90;;;;;;5051185;28;20658;-78
2023/04/26 00:56:23;;;;;;;0.50;0.50;;;2.80;99.90;;;;;;5050798;28;20658;-77
2023/04/26 00:58:49;;;;;;;0.50;0.40;;;2.80;99.90;;;;;;5053004;28;20566;-77
2023/04/26 01:01:18;;;;;;;0.50;0.40;;;2.80;99.90;;;;;;5054197;28;20199;-78
2023/04/26 01:03:45;;;;;;;0.60;0.60;;;2.70;99.90;;;;;;5054836;28;20244;-78
2023/04/26 01:06:12;;;;;;;0.50;0.40;;;2.80;99.90;;;;;;5054233;28;20223;-77
2023/04/26 01:08:40;;;;;;;0.50;0.50;;;2.80;99.90;;;;;;5054416;28;20190;-77
2023/04/26 01:11:07;;;;;;;0.50;0.50;;;2.70;99.90;;;;;;5054584;28;20252;-77
2023/04/26 01:13:36;;;;;;;0.50;0.50;;;2.70;99.90;;;;;;5054590;28;20221;-78
2023/04/26 01:16:03;;;;;;;0.50;0.50;;;2.70;99.90;;;;;;5053937;28;20218;-77
2023/04/26 01:18:31;;;;;;;0.50;0.40;;;2.60;99.90;;;;;;5054232;28;20281;-77
2023/04/26 01:20:58;;;;;;;0.50;0.50;;;2.70;99.90;;;;;;5054421;28;20226;-77
2023/04/26 01:23:26;;;;;;;0.50;0.40;;;2.60;99.90;;;;;;5054101;28;20213;-77
2023/04/26 01:25:55;;;;;;;0.50;0.40;;;2.60;99.90;;;;;;5054081;28;20226;-77
2023/04/26 01:28:21;;;;;;;0.50;0.40;;;2.50;99.90;;;;;;5053878;28;20207;-77
2023/04/26 01:30:48;;;;;;;0.50;0.40;;;2.40;99.90;;;;;;5054007;28;20226;-77
2023/04/26 01:33:15;;;;;;;0.50;0.47;;;2.40;99.90;;;;;;5053855;28;20198;-78
2023/04/26 01:35:42;;;;;;;0.50;0.40;;;2.40;99.90;;;;;;5054001;28;20245;-77
2023/04/26 01:38:09;;;;;;;0.50;0.45;;;2.30;99.90;;;;;;5053809;28;20194;-77
2023/04/26 01:40:38;;;;;;;0.50;0.50;;;2.30;99.90;;;;;;5053704;28;20767;-78
2023/04/26 01:43:05;;;;;;;0.50;0.50;;;2.30;99.90;;;;;;5053418;28;20195;-77
2023/04/26 01:45:32;;;;;;;0.50;0.45;;;2.30;99.90;;;;;;5054013;28;20578;-78
2023/04/26 01:47:58;;;;;;;0.50;0.50;;;2.30;99.90;;;;;;5053562;28;20222;-77
2023/04/26 01:50:25;;;;;;;0.50;0.40;;;2.30;99.90;;;;;;5053734;28;20225;-77
2023/04/26 01:52:52;;;;;;;0.50;0.40;;;2.40;99.90;;;;;;5053716;28;20222;-78
2023/04/26 01:55:19;;;;;;;0.50;0.50;;;2.40;99.90;;;;;;5053788;28;20195;-77
2023/04/26 01:57:47;;;;;;;0.50;0.50;;;2.50;99.90;;;;;;5053810;28;20742;-78
2023/04/26 02:00:14;;;;;;;0.50;0.40;;;2.50;99.90;;;;;;5053134;28;20221;-78
2023/04/26 02:02:41;;;;;;;0.50;0.50;;;2.50;99.90;;;;;;5053960;28;20198;-77
2023/04/26 02:05:11;;;;;;;0.50;0.40;;;2.50;99.90;;;;;;5053264;28;20562;-77
2023/04/26 02:07:38;;;;;;;0.50;0.40;;;2.60;99.90;;;;;;5053536;28;20206;-77
2023/04/26 02:10:06;;;;;;;0.50;0.40;;;2.60;99.90;;;;;;5053290;28;20752;-77
2023/04/26 02:12:33;;;;;;;0.50;0.40;;;2.60;99.90;;;;;;5053617;28;20197;-77
2023/04/26 02:15:01;;;;;;;0.50;0.40;;;2.60;99.90;;;;;;5053240;28;20682;-76
2023/04/26 02:17:28;;;;;;;2.78;2.58;;;2.60;99.90;;;;;;5053054;28;20187;-78
2023/04/26 02:19:55;;;;;;;1.25;1.15;;;2.60;99.90;;;;;;5053189;28;20698;-76
2023/04/26 02:22:24;;;;;;;0.50;0.40;;;2.70;99.90;;;;;;5052716;28;20666;-77
2023/04/26 02:24:51;;;;;;;0.50;0.50;;;2.70;99.90;;;;;;5053033;28;20199;-77
2023/04/26 02:27:18;;;;;;;1.02;1.02;;;2.60;99.90;;;;;;5052849;28;20218;-77
2023/04/26 02:29:46;;;;;;;0.50;0.50;;;2.60;99.90;;;;;;5109992;22;20226;-76
2023/04/26 02:32:14;;;;;;;0.50;0.40;;;2.70;99.90;;;;;;5037619;28;20218;-78
2023/04/26 02:34:41;;;;;;;0.80;0.60;;;2.70;99.90;;;;;;5053255;28;20654;-77
2023/04/26 02:37:08;;;;;;;0.50;0.40;;;2.70;99.90;;;;;;5068242;28;20658;-78
2023/04/26 02:39:35;;;;;;;0.50;0.40;;;2.70;99.90;;;;;;5060433;28;20205;-74
2023/04/26 02:42:02;;;;;;;0.50;0.50;;;2.60;99.90;;;;;;5063690;28;20202;-78
2023/04/26 02:44:30;;;;;;;0.50;0.50;;;2.60;99.90;;;;;;5059796;28;20194;-78
2023/04/26 02:46:57;;;;;;;0.50;0.40;;;2.60;99.90;;;;;;5060271;28;20238;-78
2023/04/26 02:49:25;;;;;;;0.50;0.50;;;2.60;99.90;;;;;;5062472;28;20202;-78
2023/04/26 02:51:52;;;;;;;0.50;0.50;;;2.50;99.90;;;;;;5063534;28;20244;-76
2023/04/26 02:54:19;;;;;;;0.50;0.40;;;2.50;99.90;;;;;;5061549;28;20684;-79
2023/04/26 02:56:46;;;;;;;0.50;0.50;;;2.50;99.90;;;;;;5060011;28;20201;-73
2023/04/26 02:59:12;;;;;;;0.50;0.50;;;2.50;99.90;;;;;;5060457;28;20213;-78
2023/04/26 03:01:39;;;;;;;0.50;0.40;;;2.60;99.90;;;;;;5063295;28;20701;-75
2023/04/26 03:04:06;;;;;;;0.50;0.40;;;2.50;99.90;;;;;;5063408;28;20210;-78
2023/04/26 03:06:34;;;;;;;0.50;0.40;;;2.50;99.90;;;;;;5051798;28;20214;-78
2023/04/26 03:09:01;;;;;;;0.98;0.98;;;2.40;99.90;;;;;;5059608;28;20213;-78
2023/04/26 03:11:27;;;;;;;0.50;0.40;;;2.40;99.90;;;;;;5062207;28;20719;-78
2023/04/26 03:13:54;;;;;;;0.50;0.50;;;2.40;99.90;;;;;;5063271;28;20194;-78
2023/04/26 03:16:22;;;;;;;0.50;0.40;;;2.40;99.90;;;;;;5061268;28;20198;-78
2023/04/26 03:18:49;;;;;;;0.50;0.50;;;2.50;99.90;;;;;;5059669;28;20248;-74
2023/04/26 03:21:16;;;;;;;28.80;8.60;;;2.50;99.90;;;;;;5060426;28;20228;-78
2023/04/26 03:23:44;;;;;;;0.50;0.50;;;2.50;99.90;;;;;;5063237;28;20208;-77
2023/04/26 03:26:11;;;;;;;0.50;0.50;;;2.40;99.90;;;;;;5062314;28;20225;-78
2023/04/26 03:28:38;;;;;;;0.50;0.47;;;2.40;99.90;;;;;;5059305;28;20205;-78
2023/04/26 03:31:05;;;;;;;0.50;0.40;;;2.40;99.90;;;;;;5059495;28;20730;-79
2023/04/26 03:33:34;;;;;;;2.00;0.80;;;2.40;99.90;;;;;;5062375;28;20200;-78
2023/04/26 03:36:01;;;;;;;0.50;0.43;;;2.40;99.90;;;;;;5062642;28;20208;-79
2023/04/26 03:38:28;;;;;;;0.50;0.40;;;2.40;99.90;;;;;;5059771;28;20198;-78
2023/04/26 03:40:56;;;;;;;1.40;1.40;;;2.30;99.90;;;;;;5059526;28;20226;-78
2023/04/26 03:43:23;;;;;;;1.55;1.45;;;2.30;99.90;;;;;;5059006;28;20206;-78
2023/04/26 03:45:50;;;;;;;0.50;0.50;;;2.40;99.90;;;;;;5059303;28;20214;-78
2023/04/26 03:48:17;;;;;;;0.50;0.50;;;2.30;99.90;;;;;;5059939;28;20222;-75
2023/04/26 03:50:45;;;;;;;0.50;0.50;;;2.30;99.90;;;;;;5062716;28;20604;-77
2023/04/26 03:53:12;;;;;;;0.60;0.60;;;2.20;99.90;;;;;;5062495;28;20307;-76
2023/04/26 03:55:38;;;;;;;0.50;0.40;;;2.20;99.90;;;;;;5059515;28;20198;-79
2023/04/26 03:58:07;;;;;;;0.50;0.50;;;2.20;99.90;;;;;;5059251;28;20198;-78
2023/04/26 04:00:34;;;;;;;2.58;2.35;;;2.20;99.90;;;;;;5062329;28;20221;-77
2023/04/26 04:03:01;;;;;;;0.50;0.40;;;2.20;99.90;;;;;;5062659;28;20202;-78
2023/04/26 04:05:28;;;;;;;0.50;0.50;;;2.20;99.90;;;;;;5059857;28;20653;-76
2023/04/26 04:07:55;;;;;;;0.57;0.57;;;2.20;99.90;;;;;;5058990;28;20739;-79
2023/04/26 04:10:23;;;;;;;0.70;0.70;;;2.20;99.90;;;;;;5060573;28;20276;-78
2023/04/26 04:12:49;;;;;;;0.50;0.40;;;2.10;99.90;;;;;;5062525;28;20232;-78
2023/04/26 04:15:19;;;;;;;0.55;0.52;;;2.10;99.90;;;;;;5061906;28;20672;-79
2023/04/26 04:17:46;;;;;;;0.50;0.45;;;2.20;99.90;;;;;;5059080;28;20290;-78
2023/04/26 04:20:13;;;;;;;2.40;1.77;;;2.10;99.90;;;;;;5059045;28;20218;-77
2023/04/26 04:22:40;;;;;;;0.50;0.40;;;2.10;99.90;;;;;;5062926;28;20206;-74
2023/04/26 04:25:08;;;;;;;0.50;0.50;;;2.20;99.90;;;;;;5062545;28;20573;-77
2023/04/26 04:27:35;;;;;;;0.50;0.45;;;2.10;99.90;;;;;;5059160;28;20700;-79
2023/04/26 04:30:03;;;;;;;0.50;0.50;;;2.10;99.90;;;;;;5059137;28;20226;-76
2023/04/26 04:32:32;;;;;;;1.25;1.15;;;2.10;99.90;;;;;;5061873;28;20260;-80
2023/04/26 04:34:59;;;;;;;0.50;0.40;;;2.20;99.90;;;;;;5066613;28;20204;-78
2023/04/26 04:37:27;;;;;;;0.50;0.50;;;2.10;99.90;;;;;;5064368;28;20222;-77
2023/04/26 04:39:54;;;;;;;0.50;0.50;;;2.20;99.90;;;;;;5062767;28;20199;-78
2023/04/26 04:42:21;;;;;;;0.50;0.40;;;2.20;99.90;;;;;;5063281;28;20658;-79
2023/04/26 04:44:48;;;;;;;0.50;0.50;;;2.20;99.90;;;;;;5066168;28;20202;-77
2023/04/26 04:47:16;;;;;;;0.50;0.50;;;2.20;99.90;;;;;;5065525;28;20304;-78
2023/04/26 04:49:44;;;;;;;0.50;0.50;;;2.30;99.90;;;;;;5066929;28;20201;-79
2023/04/26 04:52:11;;;;;;;0.50;0.40;;;2.30;99.90;;;;;;5066326;28;20198;-79
2023/04/26 04:54:38;;;;;;;0.80;0.80;;;2.30;99.90;;;;;;5065909;28;20550;-78
2023/04/26 04:57:05;;;;;;;0.50;0.47;;;2.40;99.90;;;;;;5065725;28;20190;-76
2023/04/26 04:59:32;;;;;;;0.50;0.40;;;2.50;99.90;;;;;;5062989;28;20665;-78
2023/04/26 05:01:59;;;;;;;0.50;0.50;;;2.60;99.90;;;;;;5062796;28;20578;-78
2023/04/26 05:04:25;;;;;;;1.95;1.85;;;2.70;99.90;;;;;;5063673;28;20678;-79
2023/04/26 05:06:54;;;;;;;0.50;0.50;;;2.70;99.90;;;;;;5065676;28;20198;-78
2023/04/26 05:09:21;;;;;;;0.98;0.98;;;2.80;99.90;;;;;;5064509;28;20202;-77
2023/04/26 05:11:47;;;;;;;0.50;0.50;;;3.00;99.90;;;;;;5062548;28;20218;-77
2023/04/26 05:14:14;;;;;;;0.85;0.82;;;3.10;99.90;;;;;;5062033;28;20204;-80
2023/04/26 05:16:41;;;;;;;0.50;0.50;;;3.10;99.90;;;;;;5054500;28;20195;-77
2023/04/26 05:19:08;;;;;;;2.08;1.67;;;3.30;99.90;;;;;;5062072;28;20206;-80
2023/04/26 05:21:35;;;;;;;1.30;1.20;;;3.40;99.90;;;;;;5064573;28;20226;-79
2023/04/26 05:24:03;;;;;;;1.10;1.10;;;3.50;99.90;;;;;;5065992;28;20197;-78
2023/04/26 05:26:30;;;;;;;0.50;0.40;;;3.60;99.90;;;;;;5063258;28;20202;-78
2023/04/26 05:28:57;;;;;;;2.05;1.95;;;3.70;99.90;;;;;;5061734;28;20593;-76
2023/04/26 05:31:24;;;;;;;0.50;0.45;;;3.80;99.90;;;;;;5062412;28;20230;-78
2023/04/26 05:33:51;;;;;;;0.85;0.82;;;3.90;99.90;;;;;;5065860;28;20198;-77
2023/04/26 05:36:18;;;;;;;1.73;1.63;;;4.00;99.90;;;;;;5064650;28;20198;-77
2023/04/26 05:38:45;;;;;;;0.50;0.40;;;4.10;99.90;;;;;;5061654;28;20226;-78
2023/04/26 05:41:13;;;;;;;2.42;2.28;;;4.20;99.90;;;;;;5070184;28;20221;-78
2023/04/26 05:43:40;;;;;;;0.50;0.50;;;4.30;99.90;;;;;;5060938;28;20201;-76
2023/04/26 05:46:07;;;;;;;0.50;0.50;;;4.40;99.90;;;;;;5061549;28;20570;-77
2023/04/26 05:48:33;;;;;;;2.10;2.00;;;4.70;99.90;;;;;;5061095;28;20724;-77
2023/04/26 05:51:00;;;;;;;1.05;1.00;;;5.00;99.90;;;;;;5061652;28;20219;-78
2023/04/26 05:53:27;;;;;;;0.50;0.40;;;5.00;99.90;;;;;;5062892;28;20205;-77
2023/04/26 05:55:54;;;;;;;0.90;0.60;;;5.20;99.90;;;;;;5059500;28;20206;-78
2023/04/26 05:58:22;;;;;;;3.40;3.30;;;5.60;99.90;;;;;;5061617;28;20607;-80
2023/04/26 06:00:49;;;;;;;0.50;0.50;;;6.30;99.90;;;;;;5064829;28;20241;-79
2023/04/26 06:03:15;;;;;;;0.55;0.55;;;7.00;99.90;;;;;;5064967;28;20202;-79
2023/04/26 06:05:42;;;;;;;2.45;2.08;;;7.70;99.90;;;;;;5053924;28;20629;-79
2023/04/26 06:08:09;;;;;;;2.80;1.40;;;8.50;99.90;;;;;;5060806;28;20236;-76
2023/04/26 06:10:36;;;;;;;0.50;0.40;;;9.50;99.90;;;;;;5062566;28;20312;-77
2023/04/26 06:13:03;;;;;;;0.80;0.80;;;10.80;99.90;;;;;;5062271;28;20669;-79
2023/04/26 06:15:31;;;;;;;2.77;2.50;;;11.90;99.90;;;;;;5062264;28;20229;-79
2023/04/26 06:17:58;;;;;;;6.32;1.27;;;13.00;99.90;;;;;;5062325;28;20441;-80
2023/04/26 06:20:25;;;;;;;0.50;0.40;;;13.90;99.90;;;;;;5062453;28;20229;-80
2023/04/26 06:22:52;;;;;;;1.00;1.00;;;15.00;99.80;;;;;;5064904;28;20440;-79
2023/04/26 06:25:19;;;;;;;5.63;2.60;;;16.20;92.70;;;;;;5065830;28;20446;-77
2023/04/26 06:27:46;;;;;;;0.50;0.40;;;17.00;83.60;;;;;;5062883;28;20477;-78
2023/04/26 06:30:13;;;;;;;1.13;1.00;;;17.20;81.00;;;;;;5061744;28;20495;-79
2023/04/26 06:32:42;;;;;;;0.50;0.40;;;17.80;77.90;;;;;;5065365;28;20458;-76
2023/04/26 06:35:09;;;;;;;0.93;0.83;;;18.10;76.70;;;;;;5066544;28;20444;-80
2023/04/26 06:37:37;;;;;;;0.80;0.80;;;18.80;75.70;;;;;;5064383;28;20476;-79
2023/04/26 06:40:05;;;;;;;1.10;1.10;;;19.80;71.00;;;;;;5062449;28;20465;-78
2023/04/26 06:42:32;;;;;;;0.87;0.87;;;20.00;66.20;;;;;;5063772;28;20437;-77
2023/04/26 06:44:59;;;;;;;1.00;0.60;;;20.00;65.50;;;;;;5064637;28;20447;-78
2023/04/26 06:47:26;;;;;;;0.50;0.30;;;20.30;64.20;;;;;;5062293;28;20513;-78
2023/04/26 06:49:54;;;;;;;3.17;1.07;;;20.20;62.10;;;;;;5060111;28;20929;-78
2023/04/26 06:52:20;;;;;;;0.87;0.87;;;20.40;61.20;;;;;;5060478;28;20448;-75
2023/04/26 06:54:47;;;;;;;2.10;0.60;;;20.50;61.50;;;;;;5063111;28;20440;-79
2023/04/26 06:57:14;;;;;;;2.40;2.30;;;20.10;60.00;;;;;;5063060;28;20440;-77
2023/04/26 06:59:41;;;;;;;2.10;1.17;;;19.10;60.00;;;;;;5060228;28;20530;-78
2023/04/26 07:02:08;;;;;;;0.50;0.40;;;18.40;61.90;;;;;;5059889;28;20449;-77
2023/04/26 07:04:35;;;;;;;0.50;0.40;;;18.70;63.90;;;;;;5061466;28;20445;-78
2023/04/26 07:07:03;;;;;;;2.10;0.83;;;19.10;65.40;;;;;;5063070;28;20447;-78
2023/04/26 07:09:30;;;;;;;0.50;0.30;;;18.90;61.10;;;;;;5061428;28;20471;-78
2023/04/26 07:11:57;;;;;;;0.50;0.40;;;18.20;62.30;;;;;;5065338;28;20983;-79
2023/04/26 07:14:24;;;;;;;0.50;0.40;;;17.00;63.30;;;;;;5063772;28;20450;-78
2023/04/26 07:16:51;;;;;;;0.80;0.80;;;16.80;66.70;;;;;;5061573;28;20441;-79
2023/04/26 07:19:18;;;;;;;0.50;0.30;;;17.40;67.60;;;;;;5062662;28;20441;-80
2023/04/26 07:21:45;;;;;;;5.03;1.40;;;18.60;67.80;;;;;;5064817;28;20470;-80
2023/04/26 07:24:13;;;;;;;1.80;1.70;;;18.80;63.70;;;;;;5064878;28;20785;-79
2023/04/26 07:26:40;;;;;;;0.60;0.47;;;18.50;63.10;;;;;;5062677;28;20444;-79
2023/04/26 07:29:07;;;;;;;2.97;1.87;;;18.00;67.00;;;;;;5061262;28;20848;-78
2023/04/26 07:31:34;;;;;;;1.63;1.53;;;17.80;63.90;;;;;;5062260;28;20487;-80
2023/04/26 07:34:00;;;;;;;0.70;0.50;;;18.20;64.10;;;;;;5064944;28;20450;-80
2023/04/26 07:36:27;;;;;;;0.93;0.70;;;18.90;64.50;;;;;;5064101;28;20436;-80
2023/04/26 07:38:54;;;;;;;0.53;0.50;;;18.10;63.00;;;;;;5060703;28;20524;-79
2023/04/26 07:41:22;;;;;;;2.30;1.70;;;18.20;63.40;;;;;;5061319;28;20457;-79
2023/04/26 07:43:49;;;;;;;0.60;0.60;;;17.10;63.60;;;;;;5051719;28;20924;-77
2023/04/26 07:46:16;;;;;;;0.50;0.40;;;15.70;65.10;;;;;;5059269;28;20444;-78
2023/04/26 07:48:43;;;;;;;0.80;0.60;;;14.60;68.20;;;;;;5061383;28;20492;-79
2023/04/26 07:51:11;;;;;;;1.00;0.90;;;14.00;70.80;;;;;;5062715;28;20467;-78
2023/04/26 07:53:38;;;;;;;0.70;0.60;;;13.70;71.20;;;;;;5061134;28;20523;-80
2023/04/26 07:56:07;;;;;;;0.50;0.40;;;13.50;72.20;;;;;;5060349;28;20693;-79
2023/04/26 07:58:36;;;;;;;0.50;0.40;;;13.60;73.20;;;;;;5062751;28;20445;-79
2023/04/26 08:01:03;;;;;;;0.50;0.50;;;13.80;73.30;;;;;;5067963;28;20460;-79
2023/04/26 08:03:30;;;;;;;0.50;0.40;;;14.30;71.20;;;;;;5065831;28;20471;-79
2023/04/26 08:05:57;;;;;;;0.63;0.63;;;14.40;70.00;;;;;;5061605;28;20467;-77
2023/04/26 08:08:25;;;;;;;0.77;0.50;;;14.50;69.80;;;;;;5066202;28;20995;-79
2023/04/26 08:10:52;;;;;;;1.63;0.97;;;14.70;69.80;;;;;;5058580;28;20467;-79
2023/04/26 08:13:18;;;;;;;3.23;1.10;;;14.90;68.30;;;;;;5068435;28;20445;-78
2023/04/26 08:15:47;;;;;;;0.50;0.50;;;14.90;66.70;;;;;;5071502;28;20448;-76
2023/04/26 08:18:13;;;;;;;1.07;0.97;;;13.90;67.00;;;;;;5070396;28;20436;-80
2023/04/26 08:20:40;;;;;;;0.53;0.43;;;13.30;68.90;;;;;;5067738;28;20471;-76
2023/04/26 08:23:07;;;;;;;0.50;0.40;;;13.00;71.30;;;;;;5069244;28;20437;-79
2023/04/26 08:25:34;;;;;;;0.70;0.57;;;12.30;71.90;;;;;;5072064;28;20437;-79
2023/04/26 08:28:01;;;;;;;1.40;0.90;;;12.10;73.30;;;;;;5071807;28;20440;-78
2023/04/26 08:30:28;;;;;;;0.90;0.90;;;11.90;75.70;;;;;;5071122;28;20463;-79
2023/04/26 08:32:56;;;;;;;0.50;0.40;;;11.30;73.80;;;;;;5059303;22;20225;-78
2023/04/26 08:35:23;;;;;;;0.53;0.47;;;11.20;78.20;;;;;;5055955;28;20960;-77
2023/04/26 08:37:50;;;;;;;8.05;1.25;;;11.00;78.90;;;;;;5055790;28;20441;-79
2023/04/26 08:40:22;;;;;;;0.50;0.40;;;10.80;79.90;;;;;;5056531;28;20217;-77
2023/04/26 08:42:49;;;;;;;2.05;1.95;;;10.50;82.90;;;;;;5064278;28;20221;-79
2023/04/26 08:45:16;;;;;;;0.50;0.40;;;10.40;88.50;;;;;;5064821;28;20198;-77
2023/04/26 08:47:44;;;;;;;2.15;0.95;;;10.30;90.20;;;;;;5066456;28;20203;-77
2023/04/26 08:50:15;;;;;;;0.50;0.50;;;10.30;93.50;;;;;;5067809;28;20213;-78
2023/04/26 08:52:43;;;;;;;0.50;0.40;;;10.40;99.90;;;;;;5066484;28;20210;-77
2023/04/26 08:55:11;;;;;;;1.38;1.20;;;10.60;99.90;;;;;;5065866;28;20562;-77
2023/04/26 08:57:39;;;;;;;0.50;0.40;;;10.70;99.90;;;;;;5066364;28;20226;-78
2023/04/26 09:00:11;;;;;;;0.50;0.40;;;11.00;99.90;;;;;;5067270;28;20190;-78
2023/04/26 09:02:40;;;;;;;0.80;0.70;;;11.80;99.90;;;;;;5066461;28;20518;-78
2023/04/26 09:05:08;;;;;;;0.50;0.40;;;13.10;88.30;;;;;;5065307;28;20476;-78
2023/04/26 09:07:41;;;;;;;0.67;0.60;;;13.70;85.10;;;;;;5066573;28;20485;-78
2023/04/26 09:10:09;;;;;;;0.50;0.40;;;14.10;80.90;;;;;;5068979;28;20478;-78
2023/04/26 09:12:36;;;;;;;0.50;0.40;;;14.00;74.80;;;;;;5067875;28;20460;-78
2023/04/26 09:15:06;;;;;;;0.57;0.57;;;13.90;74.90;;;;;;5066084;28;20627;-78
2023/04/26 09:17:35;;;;;;;0.50;0.40;;;13.30;73.60;;;;;;5066461;28;20441;-78
2023/04/26 09:20:16;;;;;;;0.50;0.40;;;12.80;75.40;;;;;;5067790;28;20510;-78
2023/04/26 09:22:45;;;;;;;1.27;0.90;;;12.40;77.00;;;;;;5066338;28;20967;-78
2023/04/26 09:25:13;;;;;;;1.13;0.60;;;12.10;78.00;;;;;;5065502;28;20441;-78
2023/04/26 09:27:42;;;;;;;1.67;1.57;;;11.60;78.20;;;;;;5064575;28;20804;-78
2023/04/26 09:30:11;;;;;;;3.42;3.22;;;10.90;81.10;;;;;;5067600;28;20486;-77
2023/04/26 09:32:46;;;;;;;0.50;0.40;;;10.50;86.00;;;;;;5066559;28;20218;-77
2023/04/26 09:35:25;;;;;;;0.85;0.50;;;10.60;97.40;;;;;;5064779;28;20586;-77
2023/04/26 09:37:57;;;;;;;0.70;0.70;;;10.60;96.10;;;;;;5066787;28;20190;-78
2023/04/26 09:40:25;;;;;;;0.50;0.50;;;10.50;94.90;;;;;;5065924;28;20239;-78
2023/04/26 09:43:03;;;;;;;0.73;0.50;;;10.50;93.90;;;;;;5062315;28;20217;-78
2023/04/26 09:45:32;;;;;;;0.60;0.57;;;10.60;95.80;;;;;;5063004;28;20469;-78
2023/04/26 09:48:17;;;;;;;5.23;1.63;;;10.70;91.70;;;;;;5054777;28;20202;-78
2023/04/26 09:50:45;;;;;;;0.50;0.40;;;10.70;89.20;;;;;;5064226;28;20940;-78
2023/04/26 09:53:26;;;;;;;0.70;0.70;;;10.90;88.50;;;;;;5066400;28;20218;-77
2023/04/26 09:55:53;;;;;;;0.63;0.50;;;11.00;83.60;;;;;;5062857;28;20253;-78
2023/04/26 09:58:20;;;;;;;0.50;0.40;;;11.20;83.00;;;;;;5062387;28;20195;-78
2023/04/26 10:00:50;;;;;;;0.50;0.40;;;11.30;85.00;;;;;;5065216;28;20205;-78
2023/04/26 10:03:19;;;;;;;0.60;0.50;;;11.80;87.80;;;;;;5066454;28;20210;-77
2023/04/26 10:05:47;;;;;;;0.50;0.40;;;12.10;89.00;;;;;;5064107;28;20467;-76
2023/04/26 10:08:15;;;;;;;1.13;1.13;;;12.60;86.60;;;;;;5062370;28;20433;-77
2023/04/26 10:10:42;;;;;;;2.70;1.30;;;12.60;76.30;;;;;;5064385;28;20477;-79
2023/04/26 10:13:11;;;;;;;0.50;0.40;;;12.70;79.00;;;;;;5066309;28;20460;-78
2023/04/26 10:15:39;;;;;;;0.50;0.40;;;12.70;81.20;;;;;;5064986;28;20451;-78
2023/04/26 10:18:06;;;;;;;0.50;0.40;;;12.80;79.10;;;;;;5063302;28;20452;-78
2023/04/26 10:20:33;;;;;;;5.37;3.20;;;13.20;78.90;;;;;;5062796;28;20823;-78
2023/04/26 10:23:03;;;;;;;0.60;0.50;;;13.50;73.80;;;;;;5066454;28;20460;-79
2023/04/26 10:25:39;;;;;;;0.50;0.50;;;13.60;74.70;;;;;;5067037;28;20444;-77
2023/04/26 10:28:06;;;;;;;1.43;1.23;;;13.70;72.70;;;;;;5054941;28;20437;-78
2023/04/26 10:30:33;;;;;;;0.50;0.50;;;13.60;70.80;;;;;;5060458;28;20508;-76
2023/04/26 10:33:15;;;;;;;0.50;0.40;;;13.10;68.60;;;;;;5065484;28;20930;-78
2023/04/26 10:36:06;;;;;;;0.50;0.40;;;13.10;71.10;;;;;;5063994;28;20436;-77
2023/04/26 10:38:34;;;;;;;0.50;0.40;;;13.00;70.80;;;;;;5062016;28;20569;-78
2023/04/26 10:41:31;;;;;;;0.50;0.40;;;13.20;72.00;;;;;;5066302;28;20521;-79
2023/04/26 10:44:18;;;;;;;0.50;0.40;;;13.50;72.50;;;;;;5053529;28;20445;-79
2023/04/26 10:46:51;;;;;;;0.50;0.40;;;13.80;73.10;;;;;;5064184;28;20441;-78
2023/04/26 10:49:21;;;;;;;0.50;0.40;;;14.10;73.30;;;;;;5066014;28;20474;-78
2023/04/26 10:52:11;;;;;;;0.50;0.40;;;14.10;67.60;;;;;;5063424;28;20850;-78
2023/04/26 10:54:55;;;;;;;0.50;0.50;;;13.90;65.60;;;;;;5062404;28;20445;-78
2023/04/26 10:57:23;;;;;;;0.50;0.40;;;13.60;65.90;;;;;;5065480;28;20444;-75
2023/04/26 11:00:19;;;;;;;0.50;0.40;;;13.80;67.20;;;;;;5063025;28;20928;-78
2023/04/26 11:02:52;;;;;;;0.50;0.40;;;14.20;70.90;;;;;;5065317;28;20560;-78
2023/04/26 11:05:55;;;;;;;2.13;1.23;;;14.60;66.50;;;;;;5066570;28;20945;-76
2023/04/26 11:08:25;;;;;;;0.50;0.40;;;14.30;67.70;;;;;;5058177;28;20441;-79
2023/04/26 11:11:10;;;;;;;0.60;0.40;;;14.90;66.00;;;;;;5065924;28;20472;-79
2023/04/26 11:13:39;;;;;;;18.63;6.13;;;16.20;64.70;;;;;;5065771;28;20456;-78
2023/04/26 11:16:09;;;;;;;0.50;0.40;;;17.00;63.00;;;;;;5064478;28;20459;-79
2023/04/26 11:18:37;;;;;;;0.50;0.40;;;17.60;61.40;;;;;;5064604;28;20774;-78
2023/04/26 11:21:05;;;;;;;0.70;0.70;;;18.10;61.90;;;;;;5056747;28;20522;-78
2023/04/26 11:23:33;;;;;;;1.10;1.10;;;17.80;56.70;;;;;;5063799;28;20467;-77
2023/04/26 11:26:01;;;;;;;0.50;0.30;;;17.50;56.70;;;;;;5066420;28;20442;-79
2023/04/26 11:28:28;;;;;;;0.50;0.40;;;17.50;59.80;;;;;;5067042;28;20493;-78
2023/04/26 11:30:56;;;;;;;0.50;0.30;;;17.60;59.60;;;;;;5065367;28;20839;-79
2023/04/26 11:33:24;;;;;;;0.60;0.50;;;18.80;58.00;;;;;;5063350;28;20479;-78
2023/04/26 11:35:52;;;;;;;1.63;0.67;;;18.80;54.20;;;;;;5065110;28;20452;-79
2023/04/26 11:38:22;;;;;;;0.50;0.30;;;17.90;54.60;;;;;;5065419;28;20440;-77
2023/04/26 11:40:55;;;;;;;0.57;0.40;;;17.20;55.40;;;;;;5061406;28;20440;-78
2023/04/26 11:43:21;;;;;;;0.50;0.40;;;16.70;56.10;;;;;;5059325;28;20472;-79
2023/04/26 11:45:48;;;;;;;0.50;0.40;;;16.30;58.00;;;;;;5061023;28;20445;-77
2023/04/26 11:48:16;;;;;;;0.50;0.50;;;17.20;58.70;;;;;;5062903;28;20447;-77
2023/04/26 11:50:44;;;;;;;4.13;0.70;;;18.20;57.40;;;;;;5062274;28;20504;-77
2023/04/26 11:53:11;;;;;;;0.50;0.40;;;19.20;57.00;;;;;;5059659;28;20497;-77
2023/04/26 11:55:40;;;;;;;0.50;0.50;;;19.80;56.90;;;;;;5059550;28;20468;-77
2023/04/26 11:58:12;;;;;;;0.50;0.30;;;20.10;54.70;;;;;;5063263;28;20451;-78
2023/04/26 12:00:55;;;;;;;0.50;0.40;;;20.20;52.60;;;;;;5062609;28;20440;-77
2023/04/26 12:03:23;;;;;;;0.60;0.50;;;19.90;51.10;;;;;;5060090;28;20468;-77
2023/04/26 12:05:55;;;;;;;0.50;0.37;;;19.10;51.60;;;;;;5060943;28;20481;-78
2023/04/26 12:08:24;;;;;;;0.50;0.30;;;18.40;52.00;;;;;;5063245;28;20444;-78
2023/04/26 12:10:51;;;;;;;1.07;0.97;;;18.30;54.80;;;;;;5060801;28;21056;-78
2023/04/26 12:13:19;;;;;;;1.80;1.17;;;17.90;54.90;;;;;;5059171;28;20461;-78
2023/04/26 12:15:46;;;;;;;1.20;1.10;;;17.40;54.30;;;;;;5059841;28;20614;-78
2023/04/26 12:18:13;;;;;;;1.10;1.00;;;16.80;54.40;;;;;;5062359;28;20448;-77
2023/04/26 12:20:41;;;;;;;2.40;0.97;;;16.20;54.70;;;;;;5062642;28;20816;-76
2023/04/26 12:23:12;;;;;;;1.10;0.90;;;15.80;56.60;;;;;;5059038;28;20457;-78
2023/04/26 12:25:41;;;;;;;0.50;0.30;;;15.40;57.40;;;;;;5059021;28;20442;-77
2023/04/26 12:28:12;;;;;;;0.50;0.40;;;15.00;57.10;;;;;;5059022;28;20536;-78
2023/04/26 12:30:40;;;;;;;1.33;1.23;;;14.60;58.30;;;;;;5059114;28;20535;-78
2023/04/26 12:33:07;;;;;;;0.50;0.40;;;14.50;58.70;;;;;;5050910;28;20879;-77
2023/04/26 12:35:34;;;;;;;0.50;0.40;;;14.40;59.40;;;;;;5059041;28;20808;-77
2023/04/26 12:38:01;;;;;;;0.50;0.50;;;14.30;60.40;;;;;;5061460;28;20812;-78
2023/04/26 12:40:29;;;;;;;0.50;0.50;;;14.50;60.70;;;;;;5062187;28;20468;-75
2023/04/26 12:42:57;;;;;;;1.27;1.23;;;14.60;59.30;;;;;;5059324;28;20460;-78
2023/04/26 12:45:25;;;;;;;0.50;0.40;;;14.80;60.80;;;;;;5058872;28;20812;-77
2023/04/26 12:47:53;;;;;;;2.97;2.00;;;14.80;59.70;;;;;;5060295;28;20535;-77
2023/04/26 12:50:20;;;;;;;0.50;0.40;;;14.90;57.80;;;;;;5061890;28;20478;-78
2023/04/26 12:52:48;;;;;;;0.50;0.30;;;15.10;59.40;;;;;;5060929;28;20471;-78
2023/04/26 12:55:16;;;;;;;0.50;0.40;;;15.00;58.30;;;;;;5061681;28;20949;-77
2023/04/26 12:57:45;;;;;;;0.60;0.50;;;14.60;58.70;;;;;;5062539;28;20441;-77